Flight Track Log - Related Links

Times and Time Zones

All times are in EDT time to prevent confusion due to time zone crossing. See the CLH161 flight status page for this flight to view local times or setup timezone preferences in your user account.

Time Position Orientation Groundspeed Altitude Reporting Facility
EDT Latitude Longitude Course Direction KTS MPH feet Rate Location/Type
Wed 05:04:15 AM 51.4121 12.2025 241° Southwest  Level Estimated
Wed 05:05:15 AM 51.3642 12.0671 240° Southwest  Level Estimated
Wed 05:06:15 AM 51.3163 11.9320 240° Southwest  Level Estimated
Wed 05:07:15 AM 51.2681 11.7972 240° Southwest  Level Estimated
Wed 05:08:15 AM 51.2199 11.6627 240° Southwest  Level Estimated
Wed 05:09:15 AM 51.1714 11.5284 240° Southwest  Level Estimated
Wed 05:10:15 AM 51.1337 11.4242 240° Southwest  Level Estimated
Wed 05:11:15 AM 51.0958 11.3202 240° Southwest  Level Estimated
Wed 05:12:15 AM 51.0578 11.2163 240° Southwest  Level Estimated
Wed 05:13:15 AM 51.0198 11.1126 240° Southwest  Level Estimated
Wed 05:14:15 AM 50.9816 11.0090 240° Southwest  Level Estimated
Wed 05:15:15 AM 50.9434 10.9057 240° Southwest  Level Estimated
Wed 05:16:15 AM 50.9051 10.8025 239° Southwest  Level Estimated
Wed 05:17:15 AM 50.8666 10.6994 239° Southwest  Level Estimated
Wed 05:18:15 AM 50.8281 10.5966 239° Southwest  Level Estimated
Wed 05:19:15 AM 50.7895 10.4939 239° Southwest  Level Estimated
Wed 05:20:15 AM 50.7508 10.3914 239° Southwest  Level Estimated
Wed 05:21:15 AM 50.7121 10.2890 239° Southwest  Level Estimated
Wed 05:22:15 AM 50.6732 10.1868 239° Southwest  Level Estimated
Wed 05:23:15 AM 50.6342 10.0848 239° Southwest  Level Estimated
Wed 05:24:15 AM 50.5952 9.9830 239° Southwest  Level Estimated
Wed 05:25:15 AM 50.5560 9.8813 239° Southwest  Level Estimated
Wed 05:26:15 AM 50.5168 9.7798 239° Southwest  Level Estimated
Wed 05:27:15 AM 50.4644 9.6447 239° Southwest  Level Estimated
Wed 05:28:15 AM 50.4118 9.5100 238° Southwest  Level Estimated
Wed 05:29:15 AM 50.3590 9.3755 238° Southwest  Level Estimated
Wed 05:30:15 AM 50.3061 9.2413 238° Southwest  Level Estimated
Wed 05:31:15 AM 50.2531 9.1075 238° Southwest  Level Estimated
Wed 05:32:15 AM 50.1999 8.9739 238° Southwest  Level Estimated
Wed 05:33:15 AM 50.1465 8.8406 238° Southwest  Level Estimated
Wed 05:34:15 AM 50.0930 8.7076 238° Southwest  Level Estimated
Wed 05:35:15 AM 50.0393 8.5749 238° Southwest  Level Estimated
Wed 05:36:15 AM 49.9855 8.4425 58° Northeast  Level Estimated
Wed 05:37:15 AM 50.0393 8.5749 238° Southwest  Level Estimated
Wed 05:38:15 AM 49.9855 8.4425 58° Northeast  Level Estimated
Wed 05:39:15 AM 50.0393 8.5749 238° Southwest  Level Estimated
Wed 05:40:15 AM 49.9855 8.4425 58° Northeast  Level Estimated
Wed 05:41:15 AM 50.0393 8.5749 238° Southwest  Level Estimated
Wed 05:42:15 AM 49.9855 8.4425 58° Northeast  Level Estimated
Wed 05:43:15 AM 50.0393 8.5749 238° Southwest  Level Estimated
Wed 05:44:15 AM 49.9855 8.4425 58° Northeast  Level Estimated
Wed 05:45:15 AM 50.0393 8.5749 238° Southwest  Level Estimated
Wed 05:46:15 AM 49.9855 8.4425 238° Southwest  Level Estimated

Login

Don't have an account? Register now (free) for customized features, flight alerts, and more!